EGYP

Mount Pleasant Airport

Mount Pleasant, Falkland Islands
METAR EGYP 152050Z 23013KT 9999 FEW009 BKN030 01/M00 Q1012 BLU
Observed Flight Rules
Jul-15 @ 20:50 UTC (21 minutes ago) Marginal Visual Flight Rules
Wind Visibility Clouds
230° at 13 knots 10,000+ meters
  • Few at 900' AGL
  • Broken at 3,000' AGL
Temperatures Readings
Current 1°C / 34°F
Dewpoint 0°C / 32°F
Humidity 93%
Altimeter 29.88" Hg
Pressure 1012 hPa
Elevation 74
METAR EGYP 152050Z 23013KT 9999 FEW009 BKN030 01/M00 Q1012 BLU
Observed Flight Rules
Jul-15 @ 20:50 UTC
(21 minutes ago)
MVFR
Wind Visibility
230° at 13 knots 10,000+ meters
Clouds
  • Few at 900' AGL
  • Broken at 3,000' AGL
Temperature Dewpoint
1°C / 34°F 0°C / 32°F
Humidity Altimeter Pressure
93% 29.88" Hg 1012 hPa